createdAt,value
2022-09-04T00:02:36.073Z,4.28
2022-09-04T00:05:20.502Z,3.97
2022-09-04T00:08:39.844Z,4.10
2022-09-04T00:11:32.793Z,3.58
2022-09-04T00:14:07.012Z,4.47
2022-09-04T00:17:02.021Z,3.92
2022-09-04T00:19:43.289Z,4.03
2022-09-04T00:22:26.473Z,3.83
2022-09-04T00:25:11.415Z,3.72
2022-09-04T00:27:45.721Z,3.42
2022-09-04T00:30:22.475Z,3.75
2022-09-04T00:33:01.541Z,3.42
2022-09-04T00:35:33.731Z,4.43
2022-09-04T00:38:48.845Z,4.07
2022-09-04T00:41:22.820Z,3.88
2022-09-04T00:44:09.135Z,4.47
2022-09-04T00:46:55.152Z,3.88
2022-09-04T00:49:36.649Z,4.13
2022-09-04T00:52:07.656Z,4.68
2022-09-04T00:55:01.726Z,3.95
2022-09-04T00:57:58.871Z,6.00
2022-09-04T01:00:28.511Z,4.60
2022-09-04T01:03:02.521Z,4.40
2022-09-04T01:05:58.175Z,5.60
2022-09-04T01:08:45.635Z,4.10
2022-09-04T01:11:43.256Z,3.92
2022-09-04T01:14:55.852Z,3.58
2022-09-04T01:17:30.254Z,4.45
2022-09-04T01:20:08.546Z,5.28
2022-09-04T01:23:33.204Z,4.47
2022-09-04T01:28:50.777Z,3.97
2022-09-04T01:31:44.865Z,4.40
2022-09-04T01:34:25.919Z,3.95
2022-09-04T01:37:10.297Z,4.43
2022-09-04T01:39:40.674Z,4.20
2022-09-04T01:42:14.464Z,4.47
2022-09-04T01:44:43.509Z,4.60
2022-09-04T01:47:26.711Z,4.18
2022-09-04T01:50:07.688Z,4.18
2022-09-04T01:52:59.088Z,3.70
2022-09-04T01:55:48.103Z,4.07
2022-09-04T01:58:28.358Z,3.97
2022-09-04T02:01:05.851Z,4.50
2022-09-04T02:06:44.175Z,3.50
2022-09-04T02:09:24.883Z,4.95
2022-09-04T02:12:11.234Z,4.50
2022-09-04T02:15:06.762Z,5.15
2022-09-04T02:17:56.127Z,6.35
2022-09-04T02:20:30.511Z,4.82
2022-09-04T02:23:45.449Z,4.82
2022-09-04T02:26:42.928Z,3.97
2022-09-04T02:29:33.250Z,4.65
2022-09-04T02:32:28.828Z,4.50
2022-09-04T02:35:07.973Z,6.35
2022-09-04T02:37:45.069Z,4.97
2022-09-04T02:40:37.670Z,4.20
2022-09-04T02:43:21.349Z,4.40
2022-09-04T02:46:31.437Z,4.60
2022-09-04T02:49:30.144Z,4.30
2022-09-04T02:52:36.280Z,4.15
2022-09-04T02:55:32.575Z,4.45
2022-09-04T02:58:28.051Z,4.00
2022-09-04T03:01:03.025Z,4.32
2022-09-04T03:03:40.753Z,4.72
2022-09-04T03:06:41.751Z,4.32
2022-09-04T03:09:30.787Z,4.53
2022-09-04T03:12:11.097Z,5.20
2022-09-04T03:14:52.563Z,4.97
2022-09-04T03:17:47.174Z,5.22
2022-09-04T03:20:30.744Z,4.53
2022-09-04T03:23:21.338Z,5.22
2022-09-04T03:26:16.868Z,5.00
2022-09-04T03:29:01.004Z,4.45
2022-09-04T03:31:44.491Z,4.30
2022-09-04T03:34:15.465Z,4.05
2022-09-04T03:36:43.719Z,4.65
2022-09-04T03:39:18.518Z,4.38
2022-09-04T03:42:05.226Z,4.47
2022-09-04T03:44:53.146Z,4.35
2022-09-04T03:47:36.016Z,4.55
2022-09-04T03:50:18.492Z,4.78
2022-09-04T03:52:55.996Z,4.15
2022-09-04T03:55:35.910Z,4.70
2022-09-04T03:58:38.199Z,4.25
2022-09-04T04:01:30.902Z,5.20
2022-09-04T04:04:26.825Z,4.57
2022-09-04T04:07:07.792Z,5.32
2022-09-04T04:09:44.855Z,5.63
2022-09-04T04:12:27.511Z,5.15
2022-09-04T04:15:22.236Z,4.90
2022-09-04T04:18:17.045Z,5.13
2022-09-04T04:21:06.359Z,4.78
2022-09-04T04:24:12.445Z,5.13
2022-09-04T04:26:50.653Z,4.80
2022-09-04T04:29:43.284Z,4.85
2022-09-04T04:32:50.233Z,4.72
2022-09-04T04:35:49.681Z,4.40
2022-09-04T04:38:52.408Z,3.90
2022-09-04T04:41:30.901Z,4.60
2022-09-04T04:44:16.890Z,4.93
2022-09-04T04:46:45.847Z,4.90
2022-09-04T04:49:23.248Z,5.15
2022-09-04T04:52:19.053Z,5.28
2022-09-04T04:54:53.106Z,4.95
2022-09-04T04:57:49.156Z,4.55
2022-09-04T05:00:31.471Z,4.90
2022-09-04T05:03:23.559Z,5.05
2022-09-04T05:06:09.573Z,4.70
2022-09-04T05:08:40.873Z,4.95
2022-09-04T05:11:34.569Z,4.40
2022-09-04T05:14:24.550Z,4.53
2022-09-04T05:17:14.291Z,5.18
2022-09-04T05:20:12.301Z,4.90
2022-09-04T05:22:51.380Z,4.70
2022-09-04T05:25:47.179Z,5.00
2022-09-04T05:28:48.127Z,4.90
2022-09-04T05:31:31.704Z,5.35
2022-09-04T05:37:03.433Z,4.50
2022-09-04T05:39:40.278Z,5.15
2022-09-04T05:42:35.325Z,4.30
2022-09-04T05:45:24.730Z,4.57
2022-09-04T05:48:22.699Z,5.00
2022-09-04T05:51:03.187Z,4.75
2022-09-04T05:54:00.876Z,4.75
2022-09-04T05:56:52.473Z,4.18
2022-09-04T05:59:44.118Z,6.25
2022-09-04T06:02:51.212Z,6.18
2022-09-04T06:05:33.975Z,5.13
2022-09-04T06:08:08.220Z,5.70
2022-09-04T06:10:57.948Z,5.68
2022-09-04T06:13:41.005Z,6.25
2022-09-04T06:16:22.319Z,5.93
2022-09-04T06:18:56.586Z,5.63
2022-09-04T06:21:42.803Z,5.75
2022-09-04T06:24:29.200Z,5.30
2022-09-04T06:27:14.688Z,6.50
2022-09-04T06:29:57.568Z,6.55
2022-09-04T06:32:53.482Z,7.40
2022-09-04T06:35:50.068Z,7.78
2022-09-04T06:38:30.267Z,6.95
2022-09-04T06:41:13.350Z,7.22
2022-09-04T06:44:18.840Z,7.45
2022-09-04T06:47:29.297Z,7.93
2022-09-04T06:50:09.461Z,10.90
2022-09-04T06:53:06.780Z,11.50
2022-09-04T06:55:50.661Z,11.75
2022-09-04T06:58:18.952Z,11.00
2022-09-04T07:01:11.779Z,8.27
2022-09-04T07:03:51.017Z,7.13
2022-09-04T07:06:37.675Z,6.40
2022-09-04T07:09:16.339Z,9.10
2022-09-04T07:12:06.372Z,8.20
2022-09-04T07:14:46.511Z,7.85
2022-09-04T07:17:39.456Z,8.30
2022-09-04T07:20:27.002Z,8.93
2022-09-04T07:23:02.740Z,8.82
2022-09-04T07:25:37.090Z,8.07
2022-09-04T07:28:17.027Z,8.43
2022-09-04T07:31:01.192Z,7.68
2022-09-04T07:33:46.042Z,7.63
2022-09-04T07:36:37.224Z,6.78
2022-09-04T07:39:39.243Z,6.68
2022-09-04T07:42:13.307Z,7.93
2022-09-04T07:44:52.135Z,7.65
2022-09-04T07:47:35.412Z,7.30
2022-09-04T07:50:22.148Z,6.65
2022-09-04T07:53:15.967Z,6.57
2022-09-04T07:55:51.801Z,6.38
2022-09-04T07:58:41.230Z,5.70
2022-09-04T08:01:35.957Z,5.80
2022-09-04T08:04:25.168Z,6.47
2022-09-04T08:07:02.842Z,5.90
2022-09-04T08:09:55.257Z,6.07
2022-09-04T08:12:32.656Z,5.05
2022-09-04T08:15:23.321Z,5.05
2022-09-04T08:17:51.706Z,5.38
2022-09-04T08:20:55.149Z,6.30
2022-09-04T08:23:35.544Z,6.50
2022-09-04T08:26:14.276Z,6.00
2022-09-04T08:28:57.595Z,6.18
2022-09-04T08:34:43.620Z,7.28
2022-09-04T08:37:34.652Z,7.18
2022-09-04T08:40:25.406Z,7.43
2022-09-04T08:43:15.418Z,8.38
2022-09-04T08:45:49.756Z,8.10
2022-09-04T08:48:42.607Z,7.22
2022-09-04T08:51:36.385Z,8.35
2022-09-04T08:54:23.351Z,7.40
2022-09-04T08:57:03.646Z,8.77
2022-09-04T08:59:53.381Z,8.93
2022-09-04T09:02:34.271Z,7.28
2022-09-04T09:05:10.071Z,8.70
2022-09-04T09:08:06.823Z,8.15
2022-09-04T09:11:12.079Z,8.50
2022-09-04T09:14:01.926Z,6.80
2022-09-04T09:16:33.496Z,9.32
2022-09-04T09:19:25.123Z,8.10
2022-09-04T09:22:14.740Z,7.70
2022-09-04T09:25:01.776Z,8.70
2022-09-04T09:27:51.708Z,7.03
2022-09-04T09:30:23.898Z,6.95
2022-09-04T09:33:17.014Z,7.10
2022-09-04T09:36:30.123Z,6.68
2022-09-04T09:38:58.270Z,5.80
2022-09-04T09:42:02.839Z,6.85
2022-09-04T09:45:06.284Z,5.97
2022-09-04T09:47:59.239Z,6.13
2022-09-04T09:50:51.673Z,5.97
2022-09-04T09:53:47.231Z,6.90
2022-09-04T09:56:53.693Z,6.78
2022-09-04T09:59:30.970Z,7.50
2022-09-04T10:02:17.022Z,7.28
2022-09-04T10:05:00.084Z,7.15
2022-09-04T10:07:40.235Z,6.63
2022-09-04T10:10:47.678Z,7.13
2022-09-04T10:13:45.461Z,7.30
2022-09-04T10:16:45.569Z,6.50
2022-09-04T10:19:39.382Z,7.57
2022-09-04T10:22:35.336Z,8.18
2022-09-04T10:25:28.625Z,7.47
2022-09-04T10:27:59.831Z,6.13
2022-09-04T10:30:57.079Z,6.72
2022-09-04T10:33:55.715Z,7.80
2022-09-04T10:36:55.303Z,6.18
2022-09-04T10:39:53.338Z,7.32
2022-09-04T10:42:47.883Z,7.43
2022-09-04T10:45:30.729Z,8.02
2022-09-04T10:48:20.238Z,8.05
2022-09-04T10:51:12.406Z,7.35
2022-09-04T10:54:08.055Z,7.88
2022-09-04T10:56:51.410Z,7.10
2022-09-04T10:59:52.193Z,7.72
2022-09-04T11:02:41.366Z,6.85
2022-09-04T11:05:37.882Z,6.32
2022-09-04T11:08:42.487Z,6.85
2022-09-04T11:11:26.838Z,8.50
2022-09-04T11:14:28.934Z,10.30
2022-09-04T11:17:28.525Z,7.63
2022-09-04T11:20:34.590Z,7.85
2022-09-04T11:23:40.352Z,7.90
2022-09-04T11:26:48.709Z,6.18
2022-09-04T11:29:30.468Z,6.38
2022-09-04T11:32:35.746Z,6.93
2022-09-04T11:35:15.214Z,6.30
2022-09-04T11:38:10.618Z,7.22
2022-09-04T11:40:57.655Z,5.88
2022-09-04T11:44:03.806Z,6.28
2022-09-04T11:46:40.853Z,6.53
2022-09-04T11:49:35.488Z,5.68
2022-09-04T11:52:12.367Z,6.05
2022-09-04T11:55:18.855Z,5.55
2022-09-04T11:57:55.915Z,5.60
2022-09-04T12:00:24.331Z,6.68
2022-09-04T12:03:10.683Z,5.65
2022-09-04T12:06:02.434Z,5.57
2022-09-04T12:08:46.513Z,6.10
2022-09-04T12:11:39.589Z,5.45
2022-09-04T12:14:15.130Z,6.28
2022-09-04T12:17:21.407Z,5.50
2022-09-04T12:20:08.219Z,5.43
2022-09-04T12:22:55.015Z,4.88
2022-09-04T12:25:49.716Z,4.90
2022-09-04T12:29:06.546Z,5.63
2022-09-04T12:31:51.214Z,6.47
2022-09-04T12:34:19.757Z,4.90
2022-09-04T12:36:52.136Z,5.20
2022-09-04T12:39:50.950Z,5.33
2022-09-04T12:42:45.274Z,5.22
2022-09-04T12:45:36.548Z,5.80
2022-09-04T12:48:19.647Z,6.82
2022-09-04T12:50:47.840Z,5.85
2022-09-04T12:53:32.810Z,5.68
2022-09-04T12:56:15.824Z,5.68
2022-09-04T12:58:55.879Z,6.45
2022-09-04T13:01:36.353Z,5.20
2022-09-04T13:04:04.616Z,6.50
2022-09-04T13:06:49.215Z,5.20
2022-09-04T13:09:36.147Z,6.22
2022-09-04T13:12:53.537Z,5.70
2022-09-04T13:15:53.687Z,5.65
2022-09-04T13:18:24.639Z,5.45
2022-09-04T13:21:13.959Z,5.00
2022-09-04T13:24:01.061Z,5.85
2022-09-04T13:26:36.402Z,5.57
2022-09-04T13:29:23.257Z,5.88
2022-09-04T13:32:19.414Z,5.50
2022-09-04T13:35:19.786Z,6.45
2022-09-04T13:38:10.955Z,6.88
2022-09-04T13:40:55.663Z,7.55
2022-09-04T13:43:35.617Z,6.97
2022-09-04T13:46:10.845Z,5.88
2022-09-04T13:48:59.896Z,5.80
2022-09-04T13:51:43.249Z,5.85
2022-09-04T13:54:31.446Z,6.47
2022-09-04T13:57:27.890Z,6.57
2022-09-04T14:00:03.769Z,5.93
2022-09-04T14:02:36.588Z,6.65
2022-09-04T14:05:20.513Z,6.57
2022-09-04T14:07:57.133Z,6.35
2022-09-04T14:10:46.544Z,6.47
2022-09-04T14:13:37.994Z,5.38
2022-09-04T14:16:09.775Z,6.25
2022-09-04T14:18:55.848Z,6.22
2022-09-04T14:22:02.521Z,6.00
2022-09-04T14:24:56.319Z,5.50
2022-09-04T14:27:53.404Z,5.78
2022-09-04T14:30:23.059Z,5.22
2022-09-04T14:33:07.469Z,5.68
2022-09-04T14:35:54.125Z,4.97
2022-09-04T14:39:18.853Z,5.30
2022-09-04T14:42:13.791Z,5.43
2022-09-04T14:45:01.713Z,6.47
2022-09-04T14:47:47.447Z,5.28
2022-09-04T14:50:20.396Z,5.60
2022-09-04T14:52:53.825Z,5.50
2022-09-04T14:56:05.372Z,4.95
2022-09-04T14:58:52.267Z,4.90
2022-09-04T15:01:23.582Z,5.47
2022-09-04T15:04:13.358Z,5.10
2022-09-04T15:07:07.934Z,5.28
2022-09-04T15:09:41.089Z,5.32
2022-09-04T15:12:38.655Z,5.00
2022-09-04T15:15:31.693Z,5.45
2022-09-04T15:18:16.063Z,5.20
2022-09-04T15:21:04.308Z,5.75
2022-09-04T15:23:45.031Z,4.85
2022-09-04T15:26:31.918Z,5.47
2022-09-04T15:29:27.208Z,5.18
2022-09-04T15:32:09.415Z,4.78
2022-09-04T15:34:42.957Z,5.60
2022-09-04T15:37:24.773Z,5.22
2022-09-04T15:40:04.994Z,4.80
2022-09-04T15:42:39.901Z,4.63
2022-09-04T15:45:19.713Z,5.18
2022-09-04T15:48:22.164Z,5.13
2022-09-04T15:51:27.982Z,4.65
2022-09-04T15:54:11.859Z,4.28
2022-09-04T15:56:52.016Z,4.88
2022-09-04T15:59:29.719Z,4.18
2022-09-04T16:02:19.761Z,4.20
2022-09-04T16:05:02.217Z,4.55
2022-09-04T16:07:49.579Z,4.03
2022-09-04T16:10:28.575Z,4.13
2022-09-04T16:13:01.653Z,4.20
2022-09-04T16:18:10.678Z,3.90
2022-09-04T16:21:04.950Z,4.35
2022-09-04T16:23:38.379Z,4.20
2022-09-04T16:26:17.929Z,3.60
2022-09-04T16:28:55.931Z,4.43
2022-09-04T16:31:37.203Z,4.00
2022-09-04T16:34:17.302Z,3.55
2022-09-04T16:37:01.959Z,4.00
2022-09-04T16:39:59.042Z,3.70
2022-09-04T16:42:41.343Z,4.00
2022-09-04T16:45:27.507Z,3.97
2022-09-04T16:47:59.152Z,4.28
2022-09-04T16:51:40.362Z,4.15
2022-09-04T16:54:32.529Z,4.40
2022-09-04T16:57:18.657Z,4.10
2022-09-04T16:59:58.766Z,4.03
2022-09-04T17:02:50.902Z,4.07
2022-09-04T17:05:40.061Z,3.80
2022-09-04T17:08:08.455Z,4.18
2022-09-04T17:11:08.787Z,4.10
2022-09-04T17:14:08.449Z,4.53
2022-09-04T17:16:52.811Z,4.00
2022-09-04T17:19:22.073Z,4.47
2022-09-04T17:26:39.790Z,5.05
2022-09-04T17:29:08.804Z,4.30
2022-09-04T17:29:16.212Z,4.65
2022-09-04T17:31:48.690Z,4.47
2022-09-04T17:40:16.422Z,4.45
2022-09-04T17:40:50.144Z,5.22
2022-09-04T17:41:38.175Z,5.07
2022-09-04T17:44:02.359Z,6.43
2022-09-04T17:46:39.032Z,5.07
2022-09-04T17:49:33.247Z,6.00
2022-09-04T17:52:08.851Z,6.80
2022-09-04T17:54:49.102Z,6.22
2022-09-04T17:57:46.363Z,6.28
2022-09-04T18:00:24.024Z,5.05
2022-09-04T18:03:16.296Z,5.80
2022-09-04T18:05:53.735Z,5.20
2022-09-04T18:08:30.249Z,5.05
2022-09-04T18:11:09.173Z,5.10
2022-09-04T18:13:52.111Z,5.18
2022-09-04T18:17:11.746Z,4.75
2022-09-04T18:19:48.864Z,5.15
2022-09-04T18:22:38.438Z,5.05
2022-09-04T18:25:40.927Z,4.40
2022-09-04T18:28:12.837Z,4.78
2022-09-04T18:37:06.289Z,5.13
2022-09-04T18:37:19.201Z,4.82
2022-09-04T18:37:47.265Z,5.00
2022-09-04T18:43:40.011Z,4.78
2022-09-04T18:50:31.107Z,5.90
2022-09-04T18:50:33.211Z,4.93
2022-09-04T18:50:39.646Z,5.47
2022-09-04T18:52:20.063Z,4.90
2022-09-04T18:54:57.781Z,4.65
2022-09-04T18:57:33.753Z,4.43
2022-09-04T19:00:10.375Z,4.90
2022-09-04T19:02:50.756Z,4.30
2022-09-04T19:05:24.572Z,5.22
2022-09-04T19:08:01.500Z,4.63
2022-09-04T19:10:35.960Z,4.97
2022-09-04T19:13:24.332Z,4.63
2022-09-04T19:15:59.286Z,4.78
2022-09-04T19:18:33.463Z,4.97
2022-09-04T19:21:10.702Z,4.10
2022-09-04T19:23:59.044Z,4.40
2022-09-04T19:26:46.582Z,4.40
2022-09-04T19:29:46.360Z,4.25
2022-09-04T19:32:20.391Z,4.78
2022-09-04T19:35:15.886Z,4.28
2022-09-04T19:45:02.325Z,5.10
2022-09-04T19:46:00.183Z,4.82
2022-09-04T19:46:11.593Z,4.57
2022-09-04T19:47:27.644Z,4.53
2022-09-04T19:53:31.986Z,4.28
2022-09-04T19:53:37.349Z,4.32
2022-09-04T19:56:24.774Z,4.22
2022-09-04T19:59:25.959Z,4.78
2022-09-04T20:02:03.070Z,4.45
2022-09-04T20:04:41.100Z,5.47
2022-09-04T20:07:32.098Z,4.40
2022-09-04T20:10:27.081Z,4.63
2022-09-04T20:13:18.467Z,4.63
2022-09-04T20:16:21.486Z,4.25
2022-09-04T20:19:16.738Z,5.53
2022-09-04T20:22:05.016Z,5.18
2022-09-04T20:25:11.353Z,5.05
2022-09-04T20:27:47.480Z,4.38
2022-09-04T20:30:24.995Z,6.05
2022-09-04T20:32:58.661Z,5.28
2022-09-04T20:35:49.036Z,4.90
2022-09-04T20:38:30.369Z,5.70
2022-09-04T20:41:18.686Z,5.53
2022-09-04T20:43:53.306Z,5.25
2022-09-04T20:52:42.143Z,5.25
2022-09-04T20:52:54.738Z,5.38
2022-09-04T20:52:58.059Z,6.00
2022-09-04T20:55:36.335Z,5.70
2022-09-04T21:03:05.399Z,5.25
2022-09-04T21:03:20.862Z,5.27
2022-09-04T21:04:11.420Z,5.80
2022-09-04T21:06:56.880Z,6.30
2022-09-04T21:09:39.036Z,6.05
2022-09-04T21:12:28.092Z,5.20
2022-09-04T21:15:10.661Z,6.68
2022-09-04T21:17:41.694Z,6.32
2022-09-04T21:20:32.000Z,6.15
2022-09-04T21:23:17.678Z,6.35
2022-09-04T21:26:05.192Z,5.95
2022-09-04T21:28:54.277Z,6.07
2022-09-04T21:31:44.397Z,6.67
2022-09-04T21:34:16.155Z,6.65
2022-09-04T21:37:13.851Z,6.05
2022-09-04T21:39:42.600Z,6.32
2022-09-04T21:42:33.661Z,6.78
2022-09-04T21:45:19.905Z,5.35
2022-09-04T21:48:17.824Z,5.95
2022-09-04T21:51:28.345Z,5.65
2022-09-04T21:55:42.532Z,5.43
2022-09-04T22:02:31.069Z,4.68
2022-09-04T22:02:36.669Z,4.65
2022-09-04T22:04:08.320Z,5.47
2022-09-04T22:10:01.868Z,4.95
2022-09-04T22:13:29.417Z,5.10
2022-09-04T22:13:41.778Z,4.95
2022-09-04T22:16:13.491Z,4.80
2022-09-04T22:19:40.088Z,4.70
2022-09-04T22:22:26.784Z,4.30
2022-09-04T22:24:57.674Z,4.45
2022-09-04T22:28:07.411Z,4.60
2022-09-04T22:30:44.891Z,4.78
2022-09-04T22:34:14.370Z,4.22
2022-09-04T22:37:01.548Z,4.93
2022-09-04T22:40:09.423Z,4.40
2022-09-04T22:42:43.522Z,4.32
2022-09-04T22:45:49.160Z,4.03
2022-09-04T22:48:28.495Z,4.30
2022-09-04T22:51:03.671Z,4.43
2022-09-04T22:53:45.863Z,4.28
2022-09-04T22:56:28.980Z,4.43
2022-09-04T22:59:34.837Z,4.90
2022-09-04T23:02:18.401Z,5.60
2022-09-04T23:12:15.542Z,4.45
2022-09-04T23:13:59.758Z,4.72
2022-09-04T23:14:06.842Z,4.32
2022-09-04T23:16:49.311Z,4.80
2022-09-04T23:26:31.132Z,4.70
2022-09-04T23:26:36.538Z,4.97
2022-09-04T23:26:42.858Z,4.57
2022-09-04T23:29:07.011Z,4.63
2022-09-04T23:32:07.166Z,4.55
2022-09-04T23:34:40.720Z,4.45
2022-09-04T23:37:35.619Z,4.38
2022-09-04T23:40:28.549Z,4.15
2022-09-04T23:42:56.633Z,4.65
2022-09-04T23:46:00.945Z,4.38
2022-09-04T23:48:54.792Z,4.57
2022-09-04T23:51:42.012Z,4.00
2022-09-04T23:54:41.835Z,4.05
2022-09-04T23:57:44.115Z,4.63
